Time;durP1;ratioP1;P1;durP2;ratioP2;P2;SDS_P1;SDS_P2;PMS_P1;PMS_P2;Temp;Humidity;BMP_temperature;BMP_pressure;BME280_temperature;BME280_humidity;BME280_pressure;Samples;Min_cycle;Max_cycle;Signal;HPM_P1;HPM_P2
2023/07/26 00:01:10;;;;;;;1.53;1.43;;;15.60;99.90;;;;;;5128044;27;20498;-77
2023/07/26 00:03:37;;;;;;;0.60;0.40;;;15.60;99.90;;;;;;5126372;27;20466;-77
2023/07/26 00:06:04;;;;;;;0.63;0.50;;;15.60;99.90;;;;;;5123797;27;20465;-76
2023/07/26 00:08:31;;;;;;;0.63;0.50;;;15.50;99.90;;;;;;5121515;27;21026;-78
2023/07/26 00:10:58;;;;;;;0.80;0.53;;;15.50;99.90;;;;;;5122392;27;20466;-78
2023/07/26 00:13:25;;;;;;;1.10;0.43;;;15.50;99.90;;;;;;5122187;27;20446;-78
2023/07/26 00:15:53;;;;;;;0.70;0.60;;;15.50;99.90;;;;;;5121609;27;20485;-76
2023/07/26 00:18:20;;;;;;;3.80;1.30;;;15.50;99.90;;;;;;5123609;27;20531;-79
2023/07/26 00:20:47;;;;;;;0.87;0.40;;;15.50;99.90;;;;;;5122803;27;21030;-77
2023/07/26 00:23:14;;;;;;;1.17;0.70;;;15.40;99.90;;;;;;5120216;27;20485;-76
2023/07/26 00:25:41;;;;;;;0.50;0.40;;;15.40;99.90;;;;;;5120899;27;20463;-77
2023/07/26 00:28:08;;;;;;;1.37;0.40;;;15.40;99.90;;;;;;5119148;27;20482;-78
2023/07/26 00:30:35;;;;;;;1.43;0.50;;;15.40;99.90;;;;;;5114507;27;20508;-77
2023/07/26 00:33:03;;;;;;;0.60;0.50;;;15.40;99.90;;;;;;5123825;27;20439;-78
2023/07/26 00:35:36;;;;;;;2.40;0.40;;;15.50;99.90;;;;;;5125508;27;20597;-76
2023/07/26 00:38:03;;;;;;;0.80;0.43;;;15.50;99.90;;;;;;5119105;27;20492;-80
2023/07/26 00:40:30;;;;;;;0.50;0.33;;;15.50;99.90;;;;;;5122590;27;21122;-77
2023/07/26 00:42:57;;;;;;;0.70;0.40;;;15.40;99.90;;;;;;5120011;27;20462;-77
2023/07/26 00:45:24;;;;;;;1.33;0.40;;;15.40;99.90;;;;;;5124944;27;20497;-76
2023/07/26 00:47:51;;;;;;;1.73;0.40;;;15.40;99.90;;;;;;5125487;27;20481;-77
2023/07/26 00:50:20;;;;;;;1.20;0.40;;;15.40;99.90;;;;;;5127063;27;20449;-78
2023/07/26 00:52:47;;;;;;;0.73;0.33;;;15.40;99.90;;;;;;5125310;27;20504;-79
2023/07/26 00:55:15;;;;;;;0.67;0.50;;;15.30;99.90;;;;;;5125848;27;21100;-77
2023/07/26 00:57:43;;;;;;;1.03;1.00;;;15.30;99.90;;;;;;5120129;27;21009;-79
2023/07/26 01:00:11;;;;;;;0.70;0.40;;;15.30;99.90;;;;;;5123763;27;20577;-77
2023/07/26 01:02:38;;;;;;;1.27;0.43;;;15.30;99.90;;;;;;5127739;27;20462;-78
2023/07/26 01:05:06;;;;;;;0.70;0.60;;;15.30;99.90;;;;;;5126564;27;20541;-79
2023/07/26 01:07:46;;;;;;;1.83;0.53;;;15.30;99.90;;;;;;5124198;27;20925;-79
2023/07/26 01:10:23;;;;;;;0.50;0.47;;;15.30;99.90;;;;;;5123131;27;20538;-78
2023/07/26 01:12:56;;;;;;;0.60;0.40;;;15.20;99.90;;;;;;5123412;27;20465;-78
2023/07/26 01:15:27;;;;;;;2.03;0.70;;;15.10;99.90;;;;;;5125120;27;20461;-78
2023/07/26 01:18:08;;;;;;;0.40;0.40;;;15.10;99.90;;;;;;5123522;27;20515;-76
2023/07/26 01:20:35;;;;;;;0.70;0.40;;;15.10;99.90;;;;;;5121503;27;20510;-78
2023/07/26 01:23:03;;;;;;;0.40;0.30;;;15.10;99.90;;;;;;5124636;27;21003;-77
2023/07/26 01:25:30;;;;;;;0.60;0.43;;;15.10;99.90;;;;;;5125360;27;20518;-78
2023/07/26 01:27:57;;;;;;;0.50;0.40;;;15.10;99.90;;;;;;5121103;27;20535;-77
2023/07/26 01:30:24;;;;;;;0.60;0.50;;;15.10;99.90;;;;;;5126591;27;20457;-79
2023/07/26 01:32:54;;;;;;;0.70;0.40;;;15.10;99.90;;;;;;5125427;27;20809;-76
2023/07/26 01:35:22;;;;;;;1.30;0.40;;;15.10;99.90;;;;;;5127676;27;20495;-79
2023/07/26 01:37:49;;;;;;;1.10;0.40;;;15.10;99.90;;;;;;5121513;27;20518;-77
2023/07/26 01:40:18;;;;;;;1.00;0.30;;;15.20;99.90;;;;;;5127230;27;20474;-76
2023/07/26 01:42:47;;;;;;;0.53;0.40;;;15.10;99.90;;;;;;5126807;27;20562;-77
2023/07/26 01:45:14;;;;;;;0.70;0.30;;;15.10;99.90;;;;;;5124756;27;20478;-77
2023/07/26 01:47:41;;;;;;;0.50;0.30;;;15.10;99.90;;;;;;5121612;27;20829;-79
2023/07/26 01:50:08;;;;;;;1.47;0.43;;;15.20;99.90;;;;;;5117682;27;20782;-79
2023/07/26 01:52:35;;;;;;;0.60;0.50;;;15.10;99.90;;;;;;5127786;27;20520;-77
2023/07/26 01:55:02;;;;;;;0.53;0.40;;;15.10;99.90;;;;;;5120270;27;20459;-78
2023/07/26 01:57:31;;;;;;;0.60;0.40;;;15.10;99.90;;;;;;5125247;27;20529;-76
2023/07/26 01:59:59;;;;;;;2.20;0.50;;;15.00;99.90;;;;;;5125071;27;20538;-79
2023/07/26 02:02:26;;;;;;;0.40;0.30;;;14.90;99.90;;;;;;5114484;28;20465;-78
2023/07/26 02:04:53;;;;;;;0.50;0.37;;;14.80;99.90;;;;;;5121574;28;21246;-77
2023/07/26 02:07:20;;;;;;;1.03;0.50;;;14.70;99.90;;;;;;5120696;27;20450;-78
2023/07/26 02:09:47;;;;;;;0.70;0.40;;;14.70;99.90;;;;;;5119956;27;20496;-76
2023/07/26 02:12:14;;;;;;;0.40;0.40;;;14.60;99.90;;;;;;5119792;28;20450;-76
2023/07/26 02:14:42;;;;;;;0.50;0.40;;;14.60;99.90;;;;;;5122175;28;20915;-77
2023/07/26 02:17:09;;;;;;;0.60;0.47;;;14.60;99.90;;;;;;5117799;27;20543;-78
2023/07/26 02:19:36;;;;;;;0.90;0.50;;;14.60;99.90;;;;;;5118349;27;20481;-76
2023/07/26 02:22:03;;;;;;;0.70;0.40;;;14.60;99.90;;;;;;5122099;27;20504;-78
2023/07/26 02:24:30;;;;;;;0.50;0.50;;;14.60;99.90;;;;;;5125473;27;20470;-77
2023/07/26 02:26:57;;;;;;;0.50;0.40;;;14.60;99.90;;;;;;5124465;27;20500;-77
2023/07/26 02:29:24;;;;;;;0.50;0.40;;;14.50;99.90;;;;;;5120977;27;20641;-77
2023/07/26 02:31:52;;;;;;;1.80;0.50;;;14.50;99.90;;;;;;5124150;27;20923;-77
2023/07/26 02:34:19;;;;;;;0.53;0.50;;;14.50;99.90;;;;;;5120702;27;20937;-76
2023/07/26 02:36:46;;;;;;;0.63;0.60;;;14.40;99.90;;;;;;5126462;27;20989;-76
2023/07/26 02:39:13;;;;;;;0.60;0.60;;;14.40;99.90;;;;;;5125757;27;20512;-76
2023/07/26 02:41:40;;;;;;;0.80;0.60;;;14.40;99.90;;;;;;5124403;27;20937;-78
2023/07/26 02:44:07;;;;;;;1.40;0.60;;;14.30;99.90;;;;;;5126422;27;20445;-77
2023/07/26 02:46:34;;;;;;;0.60;0.50;;;14.30;99.90;;;;;;5127165;27;20497;-76
2023/07/26 02:49:02;;;;;;;1.10;0.63;;;14.20;99.90;;;;;;5128301;27;20542;-77
2023/07/26 02:51:29;;;;;;;1.73;0.83;;;14.20;99.90;;;;;;5123377;27;20497;-77
2023/07/26 02:53:56;;;;;;;0.80;0.80;;;14.20;99.90;;;;;;5123551;27;21004;-76
2023/07/26 02:56:23;;;;;;;1.07;0.83;;;14.20;99.90;;;;;;5123309;27;20510;-76
2023/07/26 02:58:50;;;;;;;0.60;0.50;;;14.20;99.90;;;;;;5125141;27;20493;-76
2023/07/26 03:01:17;;;;;;;0.70;0.70;;;14.10;99.90;;;;;;5124359;27;21187;-78
2023/07/26 03:03:44;;;;;;;0.97;0.87;;;14.00;99.90;;;;;;5126058;27;20473;-76
2023/07/26 03:06:13;;;;;;;1.37;1.00;;;13.90;99.90;;;;;;5122508;27;20499;-75
2023/07/26 03:08:40;;;;;;;1.50;1.20;;;13.90;99.90;;;;;;5133002;27;20442;-76
2023/07/26 03:11:07;;;;;;;1.03;0.87;;;13.80;99.90;;;;;;5131603;27;21002;-78
2023/07/26 03:13:34;;;;;;;1.27;1.17;;;13.70;99.90;;;;;;5123960;27;20535;-76
2023/07/26 03:16:01;;;;;;;1.67;1.57;;;13.70;99.90;;;;;;5124803;27;20445;-78
2023/07/26 03:18:28;;;;;;;1.20;1.00;;;13.60;99.90;;;;;;5121984;27;20915;-78
2023/07/26 03:20:55;;;;;;;1.40;1.10;;;13.60;99.90;;;;;;5126605;27;20537;-78
2023/07/26 03:23:23;;;;;;;1.43;1.10;;;13.60;99.90;;;;;;5122782;27;20435;-77
2023/07/26 03:25:50;;;;;;;1.17;1.07;;;13.50;99.90;;;;;;5123116;27;20522;-77
2023/07/26 03:28:17;;;;;;;2.10;1.10;;;13.50;99.90;;;;;;5127710;27;20481;-77
2023/07/26 03:30:44;;;;;;;1.97;1.20;;;13.50;99.90;;;;;;5126109;27;20485;-77
2023/07/26 03:33:11;;;;;;;1.37;1.03;;;13.50;99.90;;;;;;5124990;27;20511;-77
2023/07/26 03:35:38;;;;;;;1.67;1.57;;;13.50;99.90;;;;;;5130224;27;20483;-77
2023/07/26 03:38:05;;;;;;;0.90;0.90;;;13.50;99.90;;;;;;5122461;27;20496;-76
2023/07/26 03:40:34;;;;;;;0.87;0.87;;;13.50;99.90;;;;;;5123448;27;20477;-76
2023/07/26 03:43:01;;;;;;;1.37;1.27;;;13.50;99.90;;;;;;5120046;27;20443;-76
2023/07/26 03:45:28;;;;;;;2.17;1.50;;;13.50;99.90;;;;;;5119937;27;20982;-77
2023/07/26 03:47:53;;;;;;;1.20;1.10;;;13.50;99.90;;;;;;5121979;27;20512;-79
2023/07/26 03:50:21;;;;;;;1.93;1.83;;;13.50;99.90;;;;;;5123436;27;20465;-79
2023/07/26 03:52:48;;;;;;;4.13;1.77;;;13.50;99.90;;;;;;5118710;27;21422;-78
2023/07/26 03:55:15;;;;;;;1.07;1.00;;;13.50;99.90;;;;;;5118521;27;21342;-78
2023/07/26 03:57:44;;;;;;;2.40;1.20;;;13.50;99.90;;;;;;5126554;27;20445;-76
2023/07/26 04:00:12;;;;;;;1.83;1.23;;;13.50;99.90;;;;;;5116314;27;20971;-77
2023/07/26 04:02:39;;;;;;;1.50;1.40;;;13.40;99.90;;;;;;5124031;27;20474;-78
2023/07/26 04:05:06;;;;;;;1.30;1.20;;;13.50;99.90;;;;;;5124696;27;20437;-77
2023/07/26 04:07:35;;;;;;;8.00;2.93;;;13.50;99.90;;;;;;5122729;27;20525;-75
2023/07/26 04:10:02;;;;;;;1.90;1.20;;;13.50;99.90;;;;;;5123328;27;20466;-76
2023/07/26 04:12:31;;;;;;;3.00;1.93;;;13.50;99.90;;;;;;5123324;27;20493;-77
2023/07/26 04:15:00;;;;;;;2.30;1.53;;;13.60;99.90;;;;;;5122957;27;20539;-79
2023/07/26 04:17:27;;;;;;;1.20;1.03;;;13.50;99.90;;;;;;5125216;27;20457;-78
2023/07/26 04:19:54;;;;;;;2.70;1.77;;;13.60;99.90;;;;;;5124237;27;20514;-78
2023/07/26 04:22:21;;;;;;;2.67;1.27;;;13.50;99.90;;;;;;5123609;27;20543;-78
2023/07/26 04:24:48;;;;;;;2.00;1.37;;;13.50;99.90;;;;;;5122763;27;20888;-79
2023/07/26 04:27:15;;;;;;;2.67;1.20;;;13.60;99.90;;;;;;5118451;27;20515;-78
2023/07/26 04:29:43;;;;;;;1.77;0.90;;;13.60;99.90;;;;;;5128965;27;20442;-78
2023/07/26 04:32:11;;;;;;;2.00;1.30;;;13.60;99.90;;;;;;5127845;27;20450;-77
2023/07/26 04:34:38;;;;;;;1.00;0.90;;;13.60;99.90;;;;;;5137940;27;20448;-75
2023/07/26 04:37:05;;;;;;;1.67;1.57;;;13.60;99.90;;;;;;5135711;27;20534;-79
2023/07/26 04:39:32;;;;;;;2.43;1.10;;;13.60;99.90;;;;;;5125837;27;20946;-76
2023/07/26 04:41:59;;;;;;;2.27;1.20;;;13.50;99.90;;;;;;5126413;27;21029;-78
2023/07/26 04:44:26;;;;;;;1.33;1.00;;;13.50;99.90;;;;;;5125873;27;20527;-79
2023/07/26 04:46:53;;;;;;;1.60;1.50;;;13.50;99.90;;;;;;5119362;27;20561;-78
2023/07/26 04:49:21;;;;;;;1.13;1.03;;;13.50;99.90;;;;;;5125008;27;20478;-78
2023/07/26 04:51:48;;;;;;;1.57;1.47;;;13.50;99.90;;;;;;5120788;27;20454;-76
2023/07/26 04:54:15;;;;;;;2.20;1.40;;;13.50;99.90;;;;;;5112252;27;20967;-76
2023/07/26 04:56:42;;;;;;;3.83;1.60;;;13.50;99.90;;;;;;5121194;27;20466;-76
2023/07/26 04:59:09;;;;;;;1.20;1.00;;;13.50;99.90;;;;;;5123260;27;20608;-83
2023/07/26 05:01:36;;;;;;;1.50;1.20;;;13.40;99.90;;;;;;5121164;27;20461;-76
2023/07/26 05:04:03;;;;;;;2.40;2.20;;;13.40;99.90;;;;;;5121004;27;20865;-76
2023/07/26 05:06:32;;;;;;;1.33;1.23;;;13.50;99.90;;;;;;5124541;27;20465;-79
2023/07/26 05:08:59;;;;;;;7.67;2.53;;;13.50;99.90;;;;;;5117065;27;20454;-79
2023/07/26 05:11:26;;;;;;;1.00;1.00;;;13.50;99.90;;;;;;5122164;27;20572;-77
2023/07/26 05:13:54;;;;;;;1.53;1.20;;;13.50;99.90;;;;;;5116899;27;20443;-79
2023/07/26 05:16:21;;;;;;;1.93;1.30;;;13.60;99.90;;;;;;5123757;27;20457;-77
2023/07/26 05:18:48;;;;;;;1.40;1.30;;;13.50;99.90;;;;;;5118503;27;20533;-78
2023/07/26 05:21:14;;;;;;;1.60;1.33;;;13.50;99.90;;;;;;5120474;27;20505;-78
2023/07/26 05:23:43;;;;;;;2.30;1.23;;;13.60;99.90;;;;;;5122067;27;20538;-79
2023/07/26 05:26:10;;;;;;;1.77;1.67;;;13.60;99.90;;;;;;5123654;27;20454;-76
2023/07/26 05:28:37;;;;;;;2.23;1.73;;;13.60;99.90;;;;;;5122086;27;20558;-77
2023/07/26 05:31:04;;;;;;;1.37;1.10;;;13.60;99.90;;;;;;5122897;27;20458;-78
2023/07/26 05:33:30;;;;;;;1.20;1.10;;;13.50;99.90;;;;;;5122481;27;20495;-76
2023/07/26 05:35:58;;;;;;;2.00;1.80;;;13.60;99.90;;;;;;5121339;27;20485;-79
2023/07/26 05:38:25;;;;;;;2.00;1.40;;;13.60;99.90;;;;;;5125859;27;20561;-77
2023/07/26 05:40:53;;;;;;;2.50;2.30;;;13.50;99.90;;;;;;5124200;27;20510;-78
2023/07/26 05:43:20;;;;;;;1.63;1.53;;;13.50;99.90;;;;;;5123946;27;20497;-78
2023/07/26 05:45:47;;;;;;;2.60;2.40;;;13.50;99.90;;;;;;5119737;27;20461;-78
2023/07/26 05:48:14;;;;;;;4.10;1.90;;;13.50;99.90;;;;;;5117317;27;20872;-79
2023/07/26 05:50:41;;;;;;;2.17;1.13;;;13.50;99.90;;;;;;5122711;27;20492;-77
2023/07/26 05:53:08;;;;;;;3.63;1.67;;;13.40;99.90;;;;;;5125340;27;20506;-80
2023/07/26 05:55:35;;;;;;;3.40;2.00;;;13.40;99.90;;;;;;5117123;27;20466;-77
2023/07/26 05:58:03;;;;;;;2.47;1.93;;;13.40;99.90;;;;;;5122507;27;20490;-76
2023/07/26 06:00:31;;;;;;;2.03;1.70;;;13.50;99.90;;;;;;5134279;27;20538;-79
2023/07/26 06:02:57;;;;;;;3.27;1.83;;;13.40;99.90;;;;;;5130234;28;20456;-78
2023/07/26 06:05:25;;;;;;;4.30;2.47;;;13.50;99.90;;;;;;5124290;27;20485;-79
2023/07/26 06:07:52;;;;;;;2.50;2.30;;;13.50;99.90;;;;;;5122959;28;20450;-77
2023/07/26 06:10:19;;;;;;;5.90;2.97;;;13.60;99.90;;;;;;5123419;27;20474;-77
2023/07/26 06:12:46;;;;;;;2.40;2.20;;;13.60;99.90;;;;;;5121698;28;20847;-77
2023/07/26 06:15:15;;;;;;;2.43;2.23;;;13.70;99.90;;;;;;5126069;27;20467;-77
2023/07/26 06:17:42;;;;;;;2.70;2.40;;;13.70;99.90;;;;;;5121890;28;20931;-77
2023/07/26 06:20:10;;;;;;;2.43;2.23;;;13.90;99.90;;;;;;5121055;27;20507;-80
2023/07/26 06:22:37;;;;;;;2.13;1.87;;;13.90;99.90;;;;;;5121477;27;20438;-77
2023/07/26 06:25:05;;;;;;;1.73;1.33;;;13.90;99.90;;;;;;5120851;28;21199;-77
2023/07/26 06:27:32;;;;;;;2.30;2.10;;;14.00;99.90;;;;;;5121596;27;20878;-80
2023/07/26 06:29:59;;;;;;;3.33;1.87;;;13.90;99.90;;;;;;5117527;27;20510;-78
2023/07/26 06:32:27;;;;;;;1.97;1.80;;;13.90;99.90;;;;;;5122643;28;20458;-79
2023/07/26 06:34:56;;;;;;;1.53;1.43;;;13.90;99.90;;;;;;5123410;28;20501;-77
2023/07/26 06:37:23;;;;;;;3.13;1.80;;;13.90;99.90;;;;;;5121789;27;20561;-78
2023/07/26 06:39:50;;;;;;;2.30;1.63;;;13.90;99.90;;;;;;5119459;28;20455;-77
2023/07/26 06:42:17;;;;;;;2.77;2.40;;;13.80;99.90;;;;;;5121900;27;20463;-78
2023/07/26 06:44:44;;;;;;;3.17;2.07;;;13.80;99.90;;;;;;5119945;28;20502;-78
2023/07/26 06:47:11;;;;;;;2.30;1.77;;;13.70;99.90;;;;;;5120169;28;20457;-78
2023/07/26 06:49:39;;;;;;;1.83;1.60;;;13.60;99.90;;;;;;5121617;28;20444;-78
2023/07/26 06:52:07;;;;;;;1.80;1.70;;;13.60;99.90;;;;;;5121957;28;20489;-78
2023/07/26 06:54:33;;;;;;;2.37;1.93;;;13.60;99.90;;;;;;5122948;28;20474;-78
2023/07/26 06:57:00;;;;;;;2.57;2.37;;;13.60;99.90;;;;;;5123971;28;20571;-78
2023/07/26 06:59:27;;;;;;;1.50;1.40;;;13.60;99.90;;;;;;5126096;28;20944;-78
2023/07/26 07:01:54;;;;;;;2.30;2.10;;;13.70;99.90;;;;;;5126207;28;20613;-78
2023/07/26 07:04:21;;;;;;;2.00;1.90;;;13.80;99.90;;;;;;5122023;28;20465;-78
2023/07/26 07:06:50;;;;;;;3.00;1.80;;;14.00;99.90;;;;;;5122712;28;20733;-78
2023/07/26 07:09:17;;;;;;;6.80;2.30;;;14.30;99.90;;;;;;5123081;27;20446;-78
2023/07/26 07:11:44;;;;;;;2.30;2.20;;;14.50;99.90;;;;;;5125504;27;20928;-77
2023/07/26 07:14:11;;;;;;;3.90;1.33;;;14.70;99.90;;;;;;5127493;27;20438;-80
2023/07/26 07:16:38;;;;;;;2.20;2.00;;;14.70;99.90;;;;;;5121906;27;20450;-77
2023/07/26 07:19:04;;;;;;;1.80;1.70;;;14.60;99.90;;;;;;5127136;27;20494;-77
2023/07/26 07:21:31;;;;;;;1.83;1.57;;;14.50;99.90;;;;;;5127276;27;20516;-77
2023/07/26 07:24:00;;;;;;;1.60;1.50;;;14.30;99.90;;;;;;5125105;27;20454;-77
2023/07/26 07:26:27;;;;;;;3.30;2.07;;;14.10;99.90;;;;;;5143678;27;20445;-78
2023/07/26 07:28:54;;;;;;;2.00;1.90;;;14.00;99.90;;;;;;5130252;27;20477;-78
2023/07/26 07:31:21;;;;;;;2.40;2.20;;;13.80;99.90;;;;;;5132202;27;20512;-77
2023/07/26 07:33:48;;;;;;;3.77;1.70;;;13.80;99.90;;;;;;5121105;27;21258;-77
2023/07/26 07:36:18;;;;;;;5.73;1.50;;;13.80;99.90;;;;;;5123731;27;20486;-76
2023/07/26 07:38:45;;;;;;;2.53;2.33;;;13.70;99.90;;;;;;5127962;27;21038;-77
2023/07/26 07:41:13;;;;;;;3.67;2.00;;;13.60;99.90;;;;;;5126238;27;20491;-76
2023/07/26 07:43:40;;;;;;;2.77;1.57;;;13.50;99.90;;;;;;5127245;27;20455;-79
2023/07/26 07:46:07;;;;;;;3.43;2.47;;;13.50;99.90;;;;;;5121091;27;20502;-77
2023/07/26 07:48:35;;;;;;;3.20;2.90;;;13.50;99.90;;;;;;5125509;27;20462;-77
2023/07/26 07:51:03;;;;;;;2.00;1.90;;;13.40;99.90;;;;;;5125151;27;20456;-76
2023/07/26 07:53:30;;;;;;;3.17;2.33;;;13.40;99.90;;;;;;5124283;27;20501;-77
2023/07/26 07:55:57;;;;;;;3.30;3.00;;;13.60;99.90;;;;;;5124218;27;20438;-77
2023/07/26 07:58:26;;;;;;;2.63;2.43;;;13.70;99.90;;;;;;5129324;27;20537;-80
2023/07/26 08:00:58;;;;;;;3.57;3.23;;;13.70;99.90;;;;;;5122310;27;20502;-76
2023/07/26 08:03:25;;;;;;;3.43;2.97;;;13.80;99.90;;;;;;5124095;27;20456;-77
2023/07/26 08:05:52;;;;;;;2.47;2.27;;;13.80;99.90;;;;;;5120122;27;20574;-77
2023/07/26 08:08:19;;;;;;;2.77;2.57;;;13.90;99.90;;;;;;5123060;27;20461;-77
2023/07/26 08:10:46;;;;;;;3.07;2.70;;;13.80;99.90;;;;;;5126096;27;20525;-78
2023/07/26 08:13:13;;;;;;;3.23;2.60;;;14.00;99.90;;;;;;5118819;27;20551;-80
2023/07/26 08:15:41;;;;;;;3.07;2.53;;;14.10;99.90;;;;;;5125447;27;20499;-78
2023/07/26 08:18:08;;;;;;;1.70;1.60;;;14.30;99.90;;;;;;5116893;27;20464;-78
2023/07/26 08:20:36;;;;;;;2.07;1.87;;;14.30;99.90;;;;;;5122530;27;20522;-78
2023/07/26 08:23:03;;;;;;;4.50;1.80;;;14.40;99.90;;;;;;5126201;27;20498;-77
2023/07/26 08:25:30;;;;;;;1.33;1.23;;;14.50;99.90;;;;;;5121823;27;21899;-78
2023/07/26 08:27:57;;;;;;;1.57;1.40;;;14.70;99.90;;;;;;5126131;27;20485;-78
2023/07/26 08:30:24;;;;;;;1.20;1.00;;;14.90;99.90;;;;;;5126112;27;20502;-77
2023/07/26 08:32:52;;;;;;;1.77;1.20;;;15.00;99.90;;;;;;5120297;27;20507;-80
2023/07/26 08:35:19;;;;;;;1.67;1.57;;;15.20;99.90;;;;;;5118331;27;20549;-82
2023/07/26 08:37:46;;;;;;;1.30;1.03;;;15.00;99.90;;;;;;5122727;27;20460;-78
2023/07/26 08:40:14;;;;;;;1.83;0.90;;;14.90;99.90;;;;;;5124856;27;20849;-77
2023/07/26 08:42:42;;;;;;;0.67;0.67;;;15.00;99.90;;;;;;5118813;27;20899;-80
2023/07/26 08:45:10;;;;;;;2.23;0.83;;;15.10;99.90;;;;;;5123864;27;20947;-81
2023/07/26 08:47:38;;;;;;;0.83;0.83;;;15.60;99.90;;;;;;5115839;27;20498;-82
2023/07/26 08:50:07;;;;;;;3.53;1.30;;;16.20;99.90;;;;;;5118989;27;20448;-78
2023/07/26 08:52:34;;;;;;;1.60;0.70;;;16.40;99.90;;;;;;5137396;27;20484;-77
2023/07/26 08:55:02;;;;;;;1.10;1.00;;;16.30;99.90;;;;;;5135441;27;20438;-79
2023/07/26 08:57:29;;;;;;;3.50;1.40;;;16.30;99.90;;;;;;5129045;27;20464;-78
2023/07/26 08:59:57;;;;;;;1.07;1.00;;;16.20;99.90;;;;;;5124252;27;20519;-77
2023/07/26 09:02:25;;;;;;;1.17;1.07;;;16.20;99.90;;;;;;5125623;27;20489;-77
2023/07/26 09:04:52;;;;;;;1.53;1.43;;;16.20;99.90;;;;;;5124934;27;20552;-76
2023/07/26 09:07:20;;;;;;;1.30;1.20;;;16.30;99.90;;;;;;5121295;27;20458;-77
2023/07/26 09:09:47;;;;;;;1.30;1.20;;;16.50;99.90;;;;;;5122553;27;20471;-77
2023/07/26 09:12:25;;;;;;;1.07;0.93;;;16.80;99.90;;;;;;5123234;27;21091;-78
2023/07/26 09:14:57;;;;;;;1.00;0.83;;;17.00;99.90;;;;;;5123900;27;20452;-80
2023/07/26 09:17:38;;;;;;;1.40;1.30;;;16.90;99.90;;;;;;5117171;27;20928;-77
2023/07/26 09:20:06;;;;;;;2.10;1.07;;;16.60;99.90;;;;;;5118794;27;20531;-77
2023/07/26 09:22:35;;;;;;;5.03;1.00;;;15.90;99.90;;;;;;5122413;27;20485;-78
2023/07/26 09:25:02;;;;;;;2.30;1.90;;;15.60;99.90;;;;;;5125125;27;20545;-80
2023/07/26 09:27:30;;;;;;;2.40;1.30;;;15.00;99.90;;;;;;5122495;27;20483;-79
2023/07/26 09:29:58;;;;;;;2.10;1.70;;;14.60;99.90;;;;;;5123325;27;20442;-76
2023/07/26 09:32:29;;;;;;;0.83;0.80;;;14.40;99.90;;;;;;5116374;27;20463;-74
2023/07/26 09:34:59;;;;;;;0.97;0.60;;;14.00;99.90;;;;;;5124909;27;21126;-75
2023/07/26 09:37:26;;;;;;;2.17;0.50;;;14.00;99.90;;;;;;5122782;27;20489;-75
2023/07/26 09:39:55;;;;;;;0.50;0.47;;;14.10;99.90;;;;;;5124160;27;21145;-76
2023/07/26 09:42:23;;;;;;;0.70;0.50;;;14.40;99.90;;;;;;5124157;27;20564;-75
2023/07/26 09:44:57;;;;;;;0.97;0.80;;;14.70;99.90;;;;;;5124815;27;20442;-75
2023/07/26 09:47:35;;;;;;;0.80;0.70;;;15.10;99.90;;;;;;5115764;27;21348;-75
2023/07/26 09:50:02;;;;;;;1.23;0.83;;;15.40;99.90;;;;;;5120155;27;20541;-75
2023/07/26 09:52:31;;;;;;;1.00;1.00;;;16.30;99.90;;;;;;5126408;27;20446;-76
2023/07/26 09:55:01;;;;;;;2.80;1.93;;;17.00;99.90;;;;;;5123277;27;20877;-76
2023/07/26 09:57:31;;;;;;;2.80;1.13;;;17.00;99.90;;;;;;5124029;27;20530;-80
2023/07/26 10:00:02;;;;;;;4.03;1.43;;;17.00;99.90;;;;;;5117261;27;20536;-76
2023/07/26 10:02:30;;;;;;;1.90;1.80;;;16.80;99.90;;;;;;5119467;27;20486;-77
2023/07/26 10:04:58;;;;;;;1.50;1.40;;;16.70;99.90;;;;;;5118072;27;20435;-77
2023/07/26 10:07:28;;;;;;;3.03;1.90;;;16.20;99.90;;;;;;5122277;27;20543;-80
2023/07/26 10:09:58;;;;;;;2.20;1.30;;;16.00;99.90;;;;;;5117696;27;20438;-76
2023/07/26 10:12:29;;;;;;;1.77;1.67;;;16.10;99.90;;;;;;5119235;28;20516;-77
2023/07/26 10:14:57;;;;;;;1.57;1.47;;;16.30;99.90;;;;;;5121890;27;20450;-76
2023/07/26 10:17:27;;;;;;;1.47;1.07;;;16.30;99.90;;;;;;5121613;27;20501;-74
2023/07/26 10:19:55;;;;;;;0.80;0.80;;;16.40;99.90;;;;;;5136999;28;20458;-76
2023/07/26 10:22:22;;;;;;;1.70;1.40;;;16.50;99.90;;;;;;5126569;27;20494;-77
2023/07/26 10:24:49;;;;;;;1.27;1.17;;;16.70;99.90;;;;;;5121790;27;20515;-80
2023/07/26 10:27:17;;;;;;;0.90;0.87;;;17.00;99.90;;;;;;5120072;28;20442;-76
2023/07/26 10:29:45;;;;;;;1.30;1.20;;;17.00;99.90;;;;;;5122292;27;20470;-78
2023/07/26 10:32:12;;;;;;;1.47;0.70;;;16.90;99.90;;;;;;5121402;28;20445;-77
2023/07/26 10:34:39;;;;;;;1.43;0.90;;;16.80;99.90;;;;;;5123567;28;20541;-77
2023/07/26 10:37:18;;;;;;;1.00;0.90;;;16.90;99.90;;;;;;5119801;28;20462;-79
2023/07/26 10:39:45;;;;;;;0.83;0.83;;;17.00;99.90;;;;;;5120900;28;21086;-77
2023/07/26 10:42:26;;;;;;;1.30;0.90;;;17.20;99.90;;;;;;5121222;28;20895;-78
2023/07/26 10:44:55;;;;;;;2.00;0.90;;;17.20;99.90;;;;;;5123084;27;20450;-78
2023/07/26 10:47:22;;;;;;;1.30;1.07;;;17.20;99.90;;;;;;5117213;27;20534;-79
2023/07/26 10:49:51;;;;;;;2.10;1.27;;;16.80;99.90;;;;;;5121985;27;20967;-77
2023/07/26 10:52:18;;;;;;;1.40;1.30;;;16.70;99.90;;;;;;5127373;27;20458;-78
2023/07/26 10:54:48;;;;;;;1.53;1.43;;;16.40;99.90;;;;;;5126360;27;20460;-77
2023/07/26 10:57:16;;;;;;;1.70;1.60;;;16.10;99.90;;;;;;5127646;27;20445;-79
2023/07/26 10:59:52;;;;;;;2.10;1.30;;;15.80;99.90;;;;;;5121023;27;20531;-77
2023/07/26 11:02:51;;;;;;;0.93;0.90;;;15.30;99.90;;;;;;5127049;27;20516;-78
2023/07/26 11:05:21;;;;;;;1.27;0.93;;;15.00;99.90;;;;;;5123448;27;20535;-76
2023/07/26 11:07:58;;;;;;;2.47;0.93;;;15.00;99.90;;;;;;5121484;27;20494;-77
2023/07/26 11:10:29;;;;;;;0.97;0.97;;;14.90;99.90;;;;;;5118908;27;20455;-77
2023/07/26 11:13:15;;;;;;;2.53;1.80;;;15.00;99.90;;;;;;5121929;27;20465;-78
2023/07/26 11:15:44;;;;;;;3.63;1.20;;;15.00;99.90;;;;;;5121353;27;20983;-77
2023/07/26 11:18:12;;;;;;;2.30;1.20;;;15.00;99.90;;;;;;5119478;27;20460;-76
2023/07/26 11:20:44;;;;;;;1.47;1.00;;;14.70;99.90;;;;;;5123973;27;20867;-76
2023/07/26 11:23:18;;;;;;;4.00;1.97;;;14.20;99.90;;;;;;5126280;27;20509;-74
2023/07/26 11:25:46;;;;;;;1.67;1.30;;;13.90;99.90;;;;;;5122818;27;20469;-74
2023/07/26 11:28:13;;;;;;;1.67;1.57;;;13.60;99.90;;;;;;5127176;27;20473;-74
2023/07/26 11:30:42;;;;;;;6.97;2.00;;;13.70;99.90;;;;;;5124588;27;20450;-74
2023/07/26 11:33:10;;;;;;;4.93;3.50;;;13.80;99.90;;;;;;5122763;27;20958;-74
2023/07/26 11:35:43;;;;;;;3.10;2.90;;;13.90;99.90;;;;;;5123988;27;20436;-75
2023/07/26 11:38:14;;;;;;;3.53;1.90;;;14.00;99.90;;;;;;5125495;27;20513;-74
2023/07/26 11:40:42;;;;;;;1.10;1.00;;;14.00;99.90;;;;;;5124968;27;20458;-77
2023/07/26 11:43:10;;;;;;;0.70;0.70;;;13.90;99.90;;;;;;5123744;27;20481;-73
2023/07/26 11:45:38;;;;;;;0.70;0.60;;;13.70;99.90;;;;;;5125349;27;20461;-75
2023/07/26 11:48:09;;;;;;;0.63;0.63;;;13.70;99.90;;;;;;5126709;27;20515;-74
2023/07/26 11:50:36;;;;;;;2.03;1.10;;;14.10;99.90;;;;;;5127979;27;20461;-77
2023/07/26 11:53:05;;;;;;;1.00;0.90;;;14.30;99.90;;;;;;5126761;27;20457;-74
2023/07/26 11:55:32;;;;;;;1.63;0.90;;;14.50;99.90;;;;;;5120927;27;20476;-73
2023/07/26 11:58:04;;;;;;;1.53;1.03;;;14.50;99.90;;;;;;5125917;27;20468;-75
2023/07/26 12:00:33;;;;;;;2.30;2.10;;;14.50;99.90;;;;;;5128324;27;20441;-74
2023/07/26 12:03:01;;;;;;;2.10;1.90;;;14.40;99.90;;;;;;5124230;27;20488;-75
2023/07/26 12:05:28;;;;;;;1.70;1.60;;;14.40;99.90;;;;;;5124857;27;20437;-76
2023/07/26 12:07:56;;;;;;;1.60;1.50;;;14.40;99.90;;;;;;5126629;27;20549;-74
2023/07/26 12:10:30;;;;;;;2.87;1.90;;;14.50;99.90;;;;;;5118938;27;20439;-76
2023/07/26 12:12:58;;;;;;;2.10;1.83;;;14.60;99.90;;;;;;5122442;27;20514;-74
2023/07/26 12:15:25;;;;;;;1.87;1.73;;;14.70;99.90;;;;;;5120691;27;21000;-75
2023/07/26 12:17:58;;;;;;;1.67;1.57;;;14.80;99.90;;;;;;5120766;27;20514;-75
2023/07/26 12:20:26;;;;;;;2.23;2.13;;;14.80;99.90;;;;;;5123425;27;20798;-78
2023/07/26 12:22:54;;;;;;;2.70;1.13;;;14.70;99.90;;;;;;5121293;27;20477;-75
2023/07/26 12:25:22;;;;;;;1.10;0.97;;;14.50;99.90;;;;;;5120826;27;20956;-74
2023/07/26 12:27:54;;;;;;;2.40;2.17;;;14.40;99.90;;;;;;5128386;27;20508;-76
2023/07/26 12:30:21;;;;;;;1.90;1.80;;;14.20;99.90;;;;;;5124066;27;20925;-75
2023/07/26 12:33:08;;;;;;;2.93;2.73;;;14.20;99.90;;;;;;5120629;27;20454;-74
2023/07/26 12:35:36;;;;;;;1.93;1.83;;;14.10;99.90;;;;;;5123407;27;20447;-77
2023/07/26 12:38:09;;;;;;;2.03;1.80;;;13.90;99.90;;;;;;5120649;27;20531;-77
2023/07/26 12:40:36;;;;;;;2.00;1.80;;;13.90;99.90;;;;;;5121094;27;20449;-74
2023/07/26 12:43:23;;;;;;;2.60;2.40;;;13.90;99.90;;;;;;5123616;27;20593;-74
2023/07/26 12:45:50;;;;;;;2.07;1.97;;;13.90;99.90;;;;;;5121369;27;20536;-72
2023/07/26 12:48:18;;;;;;;2.43;2.20;;;14.00;99.90;;;;;;5123144;27;20461;-73
2023/07/26 12:50:45;;;;;;;3.00;2.73;;;14.10;99.90;;;;;;5123420;27;20481;-76
2023/07/26 12:53:13;;;;;;;3.47;3.00;;;14.20;99.90;;;;;;5125197;27;20502;-74